sensor_id;sensor_type;location;lat;lon;timestamp;temperature;humidity
26262;DHT22;13988;52.446;13.280;2023-10-08T00:00:23;11.80;99.90
26262;DHT22;13988;52.446;13.280;2023-10-08T00:03:07;11.80;99.90
26262;DHT22;13988;52.446;13.280;2023-10-08T00:05:39;11.80;99.90
26262;DHT22;13988;52.446;13.280;2023-10-08T00:08:05;11.80;99.90
26262;DHT22;13988;52.446;13.280;2023-10-08T00:10:38;11.80;99.90
26262;DHT22;13988;52.446;13.280;2023-10-08T00:13:06;11.90;99.90
26262;DHT22;13988;52.446;13.280;2023-10-08T00:15:38;11.80;99.90
26262;DHT22;13988;52.446;13.280;2023-10-08T00:18:07;11.80;99.90
26262;DHT22;13988;52.446;13.280;2023-10-08T00:20:36;11.90;99.90
26262;DHT22;13988;52.446;13.280;2023-10-08T00:23:12;11.90;99.90
26262;DHT22;13988;52.446;13.280;2023-10-08T00:25:38;11.90;99.90
26262;DHT22;13988;52.446;13.280;2023-10-08T00:28:09;11.70;99.90
26262;DHT22;13988;52.446;13.280;2023-10-08T00:30:43;11.90;99.90
26262;DHT22;13988;52.446;13.280;2023-10-08T00:33:09;11.80;99.90
26262;DHT22;13988;52.446;13.280;2023-10-08T00:35:38;11.80;99.90
26262;DHT22;13988;52.446;13.280;2023-10-08T00:38:04;11.70;99.90
26262;DHT22;13988;52.446;13.280;2023-10-08T00:40:38;11.70;99.90
26262;DHT22;13988;52.446;13.280;2023-10-08T00:43:05;11.80;99.90
26262;DHT22;13988;52.446;13.280;2023-10-08T00:45:39;11.70;99.90
26262;DHT22;13988;52.446;13.280;2023-10-08T00:48:10;11.70;99.90
26262;DHT22;13988;52.446;13.280;2023-10-08T00:50:41;11.70;99.90
26262;DHT22;13988;52.446;13.280;2023-10-08T00:53:12;11.80;99.90
26262;DHT22;13988;52.446;13.280;2023-10-08T00:55:48;11.80;99.90
26262;DHT22;13988;52.446;13.280;2023-10-08T00:58:19;11.70;99.90
26262;DHT22;13988;52.446;13.280;2023-10-08T01:00:54;11.70;99.90
26262;DHT22;13988;52.446;13.280;2023-10-08T01:03:28;11.70;99.90
26262;DHT22;13988;52.446;13.280;2023-10-08T01:05:54;11.70;99.90
26262;DHT22;13988;52.446;13.280;2023-10-08T01:08:21;11.80;99.90
26262;DHT22;13988;52.446;13.280;2023-10-08T01:10:48;11.70;99.90
26262;DHT22;13988;52.446;13.280;2023-10-08T01:13:23;11.70;99.90
26262;DHT22;13988;52.446;13.280;2023-10-08T01:15:52;11.70;99.90
26262;DHT22;13988;52.446;13.280;2023-10-08T01:18:17;11.70;99.90
26262;DHT22;13988;52.446;13.280;2023-10-08T01:20:50;11.70;99.90
26262;DHT22;13988;52.446;13.280;2023-10-08T01:23:18;11.70;99.90
26262;DHT22;13988;52.446;13.280;2023-10-08T01:25:48;11.80;99.90
26262;DHT22;13988;52.446;13.280;2023-10-08T01:28:21;11.70;99.90
26262;DHT22;13988;52.446;13.280;2023-10-08T01:30:55;11.70;99.90
26262;DHT22;13988;52.446;13.280;2023-10-08T01:33:26;11.60;99.90
26262;DHT22;13988;52.446;13.280;2023-10-08T01:35:57;11.70;99.90
26262;DHT22;13988;52.446;13.280;2023-10-08T01:38:29;11.70;99.90
26262;DHT22;13988;52.446;13.280;2023-10-08T01:40:56;11.60;99.90
26262;DHT22;13988;52.446;13.280;2023-10-08T01:43:22;11.70;99.90
26262;DHT22;13988;52.446;13.280;2023-10-08T01:45:48;11.70;99.90
26262;DHT22;13988;52.446;13.280;2023-10-08T01:48:16;11.70;99.90
26262;DHT22;13988;52.446;13.280;2023-10-08T01:50:56;11.60;99.90
26262;DHT22;13988;52.446;13.280;2023-10-08T01:53:24;11.40;99.90
26262;DHT22;13988;52.446;13.280;2023-10-08T01:55:52;11.50;99.90
26262;DHT22;13988;52.446;13.280;2023-10-08T01:58:19;11.50;99.90
26262;DHT22;13988;52.446;13.280;2023-10-08T02:00:46;11.40;99.90
26262;DHT22;13988;52.446;13.280;2023-10-08T02:03:13;11.50;99.90
26262;DHT22;13988;52.446;13.280;2023-10-08T02:05:42;11.40;99.90
26262;DHT22;13988;52.446;13.280;2023-10-08T02:08:09;11.40;99.90
26262;DHT22;13988;52.446;13.280;2023-10-08T02:10:36;11.50;99.90
26262;DHT22;13988;52.446;13.280;2023-10-08T02:13:02;11.40;99.90
26262;DHT22;13988;52.446;13.280;2023-10-08T02:15:27;11.40;99.90
26262;DHT22;13988;52.446;13.280;2023-10-08T02:17:53;11.50;99.90
26262;DHT22;13988;52.446;13.280;2023-10-08T02:20:20;11.40;99.90
26262;DHT22;13988;52.446;13.280;2023-10-08T02:22:47;11.40;99.90
26262;DHT22;13988;52.446;13.280;2023-10-08T02:25:15;11.30;99.90
26262;DHT22;13988;52.446;13.280;2023-10-08T02:27:41;11.40;99.90
26262;DHT22;13988;52.446;13.280;2023-10-08T02:30:07;11.40;99.90
26262;DHT22;13988;52.446;13.280;2023-10-08T02:32:35;11.40;99.90
26262;DHT22;13988;52.446;13.280;2023-10-08T02:35:02;11.40;99.90
26262;DHT22;13988;52.446;13.280;2023-10-08T02:37:28;11.40;99.90
26262;DHT22;13988;52.446;13.280;2023-10-08T02:39:54;11.40;99.90
26262;DHT22;13988;52.446;13.280;2023-10-08T02:42:20;11.30;99.90
26262;DHT22;13988;52.446;13.280;2023-10-08T02:44:47;11.40;99.90
26262;DHT22;13988;52.446;13.280;2023-10-08T02:47:14;11.20;99.90
26262;DHT22;13988;52.446;13.280;2023-10-08T02:49:46;11.30;99.90
26262;DHT22;13988;52.446;13.280;2023-10-08T02:52:14;11.40;99.90
26262;DHT22;13988;52.446;13.280;2023-10-08T02:54:41;11.40;99.90
26262;DHT22;13988;52.446;13.280;2023-10-08T02:57:07;11.40;99.90
26262;DHT22;13988;52.446;13.280;2023-10-08T02:59:39;11.40;99.90
26262;DHT22;13988;52.446;13.280;2023-10-08T03:02:11;11.40;99.90
26262;DHT22;13988;52.446;13.280;2023-10-08T03:04:45;11.40;99.90
26262;DHT22;13988;52.446;13.280;2023-10-08T03:07:20;11.40;99.90
26262;DHT22;13988;52.446;13.280;2023-10-08T03:09:58;11.30;99.90
26262;DHT22;13988;52.446;13.280;2023-10-08T03:12:46;11.40;99.90
26262;DHT22;13988;52.446;13.280;2023-10-08T03:15:13;11.40;99.90
26262;DHT22;13988;52.446;13.280;2023-10-08T03:17:42;11.40;99.90
26262;DHT22;13988;52.446;13.280;2023-10-08T03:20:18;11.40;99.90
26262;DHT22;13988;52.446;13.280;2023-10-08T03:23:02;11.30;99.90
26262;DHT22;13988;52.446;13.280;2023-10-08T03:25:31;11.40;99.90
26262;DHT22;13988;52.446;13.280;2023-10-08T03:28:09;11.40;99.90
26262;DHT22;13988;52.446;13.280;2023-10-08T03:30:38;11.50;99.90
26262;DHT22;13988;52.446;13.280;2023-10-08T03:33:18;11.50;99.90
26262;DHT22;13988;52.446;13.280;2023-10-08T03:35:49;11.40;99.90
26262;DHT22;13988;52.446;13.280;2023-10-08T03:38:19;11.40;99.90
26262;DHT22;13988;52.446;13.280;2023-10-08T03:40:56;11.40;99.90
26262;DHT22;13988;52.446;13.280;2023-10-08T03:43:27;11.50;99.90
26262;DHT22;13988;52.446;13.280;2023-10-08T03:46:00;11.40;99.90
26262;DHT22;13988;52.446;13.280;2023-10-08T03:48:32;11.40;99.90
26262;DHT22;13988;52.446;13.280;2023-10-08T03:51:02;11.40;99.90
26262;DHT22;13988;52.446;13.280;2023-10-08T03:53:35;11.40;99.90
26262;DHT22;13988;52.446;13.280;2023-10-08T03:56:08;11.30;99.90
26262;DHT22;13988;52.446;13.280;2023-10-08T03:58:34;11.30;99.90
26262;DHT22;13988;52.446;13.280;2023-10-08T04:01:06;11.30;99.90
26262;DHT22;13988;52.446;13.280;2023-10-08T04:03:36;11.40;99.90
26262;DHT22;13988;52.446;13.280;2023-10-08T04:06:29;11.30;99.90
26262;DHT22;13988;52.446;13.280;2023-10-08T04:09:05;11.30;99.90
26262;DHT22;13988;52.446;13.280;2023-10-08T04:11:33;11.30;99.90
26262;DHT22;13988;52.446;13.280;2023-10-08T04:14:09;11.40;99.90
26262;DHT22;13988;52.446;13.280;2023-10-08T04:16:34;11.50;99.90
26262;DHT22;13988;52.446;13.280;2023-10-08T04:19:04;11.50;99.90
26262;DHT22;13988;52.446;13.280;2023-10-08T04:21:29;11.50;99.90
26262;DHT22;13988;52.446;13.280;2023-10-08T04:24:02;11.40;99.90
26262;DHT22;13988;52.446;13.280;2023-10-08T04:26:34;11.40;99.90
26262;DHT22;13988;52.446;13.280;2023-10-08T04:29:02;11.40;99.90
26262;DHT22;13988;52.446;13.280;2023-10-08T04:31:28;11.40;99.90
26262;DHT22;13988;52.446;13.280;2023-10-08T04:34:20;11.50;99.90
26262;DHT22;13988;52.446;13.280;2023-10-08T04:36:49;11.40;99.90
26262;DHT22;13988;52.446;13.280;2023-10-08T04:39:23;11.50;99.90
26262;DHT22;13988;52.446;13.280;2023-10-08T04:42:00;11.50;99.90
26262;DHT22;13988;52.446;13.280;2023-10-08T04:44:38;11.50;99.90
26262;DHT22;13988;52.446;13.280;2023-10-08T04:47:07;11.40;99.90
26262;DHT22;13988;52.446;13.280;2023-10-08T04:49:55;11.40;99.90
26262;DHT22;13988;52.446;13.280;2023-10-08T04:52:22;11.40;99.90
26262;DHT22;13988;52.446;13.280;2023-10-08T04:54:50;11.30;99.90
26262;DHT22;13988;52.446;13.280;2023-10-08T04:57:20;11.40;99.90
26262;DHT22;13988;52.446;13.280;2023-10-08T04:59:51;11.30;99.90
26262;DHT22;13988;52.446;13.280;2023-10-08T05:02:17;11.30;99.90
26262;DHT22;13988;52.446;13.280;2023-10-08T05:04:59;11.20;99.90
26262;DHT22;13988;52.446;13.280;2023-10-08T05:07:37;11.30;99.90
26262;DHT22;13988;52.446;13.280;2023-10-08T05:10:26;11.10;99.90
26262;DHT22;13988;52.446;13.280;2023-10-08T05:12:52;11.10;99.90
26262;DHT22;13988;52.446;13.280;2023-10-08T05:15:31;11.20;99.90
26262;DHT22;13988;52.446;13.280;2023-10-08T05:18:07;11.10;99.90
26262;DHT22;13988;52.446;13.280;2023-10-08T05:20:48;11.00;99.90
26262;DHT22;13988;52.446;13.280;2023-10-08T05:23:15;11.10;99.90
26262;DHT22;13988;52.446;13.280;2023-10-08T05:25:54;11.10;99.90
26262;DHT22;13988;52.446;13.280;2023-10-08T05:28:32;11.10;99.90
26262;DHT22;13988;52.446;13.280;2023-10-08T05:31:08;11.10;99.90
26262;DHT22;13988;52.446;13.280;2023-10-08T05:33:40;11.20;99.90
26262;DHT22;13988;52.446;13.280;2023-10-08T05:36:12;11.00;99.90
26262;DHT22;13988;52.446;13.280;2023-10-08T05:38:43;11.10;99.90
26262;DHT22;13988;52.446;13.280;2023-10-08T05:41:29;11.10;99.90
26262;DHT22;13988;52.446;13.280;2023-10-08T05:44:05;11.00;99.90
26262;DHT22;13988;52.446;13.280;2023-10-08T05:46:49;11.00;99.90
26262;DHT22;13988;52.446;13.280;2023-10-08T05:49:21;11.00;99.90
26262;DHT22;13988;52.446;13.280;2023-10-08T05:51:56;10.90;99.90
26262;DHT22;13988;52.446;13.280;2023-10-08T05:54:23;11.00;99.90
26262;DHT22;13988;52.446;13.280;2023-10-08T05:57:05;11.10;99.90
26262;DHT22;13988;52.446;13.280;2023-10-08T05:59:31;11.20;99.90
26262;DHT22;13988;52.446;13.280;2023-10-08T06:02:06;11.10;99.90
26262;DHT22;13988;52.446;13.280;2023-10-08T06:04:52;11.20;99.90
26262;DHT22;13988;52.446;13.280;2023-10-08T06:07:52;11.30;99.90
26262;DHT22;13988;52.446;13.280;2023-10-08T06:10:19;11.30;99.90
26262;DHT22;13988;52.446;13.280;2023-10-08T06:13:12;11.20;99.90
26262;DHT22;13988;52.446;13.280;2023-10-08T06:18:16;11.30;99.90
26262;DHT22;13988;52.446;13.280;2023-10-08T06:20:44;11.20;99.90
26262;DHT22;13988;52.446;13.280;2023-10-08T06:23:14;11.20;99.90
26262;DHT22;13988;52.446;13.280;2023-10-08T06:25:49;11.20;99.90
26262;DHT22;13988;52.446;13.280;2023-10-08T06:28:24;11.20;99.90
26262;DHT22;13988;52.446;13.280;2023-10-08T06:30:55;11.30;99.90
26262;DHT22;13988;52.446;13.280;2023-10-08T06:33:22;11.30;99.90
26262;DHT22;13988;52.446;13.280;2023-10-08T06:35:51;11.30;99.90
26262;DHT22;13988;52.446;13.280;2023-10-08T06:38:35;11.30;99.90
26262;DHT22;13988;52.446;13.280;2023-10-08T06:41:02;11.40;99.90
26262;DHT22;13988;52.446;13.280;2023-10-08T06:43:36;11.40;99.90
26262;DHT22;13988;52.446;13.280;2023-10-08T06:46:05;11.40;99.90
26262;DHT22;13988;52.446;13.280;2023-10-08T06:48:38;11.40;99.90
26262;DHT22;13988;52.446;13.280;2023-10-08T06:51:08;11.40;99.90
26262;DHT22;13988;52.446;13.280;2023-10-08T06:53:42;11.40;99.90
26262;DHT22;13988;52.446;13.280;2023-10-08T06:56:08;11.40;99.90
26262;DHT22;13988;52.446;13.280;2023-10-08T06:58:38;11.50;99.90
26262;DHT22;13988;52.446;13.280;2023-10-08T07:01:03;11.60;99.90
26262;DHT22;13988;52.446;13.280;2023-10-08T07:03:35;11.60;99.90
26262;DHT22;13988;52.446;13.280;2023-10-08T07:06:01;11.60;99.90
26262;DHT22;13988;52.446;13.280;2023-10-08T07:08:32;11.70;99.90
26262;DHT22;13988;52.446;13.280;2023-10-08T07:10:59;11.70;99.90
26262;DHT22;13988;52.446;13.280;2023-10-08T07:13:27;11.80;99.90
26262;DHT22;13988;52.446;13.280;2023-10-08T07:15:55;11.80;99.90
26262;DHT22;13988;52.446;13.280;2023-10-08T07:18:21;11.70;99.90
26262;DHT22;13988;52.446;13.280;2023-10-08T07:20:55;11.70;99.90
26262;DHT22;13988;52.446;13.280;2023-10-08T07:23:26;11.60;99.90
26262;DHT22;13988;52.446;13.280;2023-10-08T07:25:59;11.60;99.90
26262;DHT22;13988;52.446;13.280;2023-10-08T07:28:45;11.60;99.90
26262;DHT22;13988;52.446;13.280;2023-10-08T07:31:18;11.50;99.90
26262;DHT22;13988;52.446;13.280;2023-10-08T07:33:49;11.40;99.90
26262;DHT22;13988;52.446;13.280;2023-10-08T07:36:41;11.40;99.90
26262;DHT22;13988;52.446;13.280;2023-10-08T07:39:07;11.40;99.90
26262;DHT22;13988;52.446;13.280;2023-10-08T07:41:45;11.40;99.90
26262;DHT22;13988;52.446;13.280;2023-10-08T07:44:12;11.30;99.90
26262;DHT22;13988;52.446;13.280;2023-10-08T07:46:38;11.40;99.90
26262;DHT22;13988;52.446;13.280;2023-10-08T07:49:03;11.30;99.90
26262;DHT22;13988;52.446;13.280;2023-10-08T07:51:30;11.30;99.90
26262;DHT22;13988;52.446;13.280;2023-10-08T07:53:56;11.40;99.90
26262;DHT22;13988;52.446;13.280;2023-10-08T07:56:22;11.30;99.90
26262;DHT22;13988;52.446;13.280;2023-10-08T07:58:49;11.30;99.90
26262;DHT22;13988;52.446;13.280;2023-10-08T08:01:15;11.30;99.90
26262;DHT22;13988;52.446;13.280;2023-10-08T08:03:41;11.20;99.90
26262;DHT22;13988;52.446;13.280;2023-10-08T08:06:08;11.20;99.90
26262;DHT22;13988;52.446;13.280;2023-10-08T08:08:35;11.30;99.90
26262;DHT22;13988;52.446;13.280;2023-10-08T08:11:05;11.30;99.90
26262;DHT22;13988;52.446;13.280;2023-10-08T08:13:35;11.40;99.90
26262;DHT22;13988;52.446;13.280;2023-10-08T08:16:01;11.40;99.90
26262;DHT22;13988;52.446;13.280;2023-10-08T08:18:52;11.50;99.90
26262;DHT22;13988;52.446;13.280;2023-10-08T08:21:20;11.50;99.90
26262;DHT22;13988;52.446;13.280;2023-10-08T08:23:49;11.50;99.90
26262;DHT22;13988;52.446;13.280;2023-10-08T08:26:20;11.50;99.90
26262;DHT22;13988;52.446;13.280;2023-10-08T08:28:55;11.40;99.90
26262;DHT22;13988;52.446;13.280;2023-10-08T08:31:23;11.40;99.90
26262;DHT22;13988;52.446;13.280;2023-10-08T08:33:49;11.40;99.90
26262;DHT22;13988;52.446;13.280;2023-10-08T08:36:29;11.50;99.90
26262;DHT22;13988;52.446;13.280;2023-10-08T08:38:56;11.50;99.90
26262;DHT22;13988;52.446;13.280;2023-10-08T08:41:22;11.40;99.90
26262;DHT22;13988;52.446;13.280;2023-10-08T08:43:53;11.50;99.90
26262;DHT22;13988;52.446;13.280;2023-10-08T08:46:31;11.50;99.90
26262;DHT22;13988;52.446;13.280;2023-10-08T08:49:01;11.50;99.90
26262;DHT22;13988;52.446;13.280;2023-10-08T08:51:29;11.60;99.90
26262;DHT22;13988;52.446;13.280;2023-10-08T08:53:55;11.70;99.90
26262;DHT22;13988;52.446;13.280;2023-10-08T08:56:21;11.70;99.90
26262;DHT22;13988;52.446;13.280;2023-10-08T08:58:49;11.70;99.90
26262;DHT22;13988;52.446;13.280;2023-10-08T09:01:16;11.70;99.90
26262;DHT22;13988;52.446;13.280;2023-10-08T09:03:43;11.60;99.90
26262;DHT22;13988;52.446;13.280;2023-10-08T09:06:09;11.60;99.90
26262;DHT22;13988;52.446;13.280;2023-10-08T09:08:36;11.70;99.90
26262;DHT22;13988;52.446;13.280;2023-10-08T09:11:03;11.70;99.90
26262;DHT22;13988;52.446;13.280;2023-10-08T09:13:34;11.80;99.90
26262;DHT22;13988;52.446;13.280;2023-10-08T09:16:08;11.70;99.90
26262;DHT22;13988;52.446;13.280;2023-10-08T09:18:36;11.70;99.90
26262;DHT22;13988;52.446;13.280;2023-10-08T09:21:13;11.80;99.90
26262;DHT22;13988;52.446;13.280;2023-10-08T09:23:43;11.80;99.90
26262;DHT22;13988;52.446;13.280;2023-10-08T09:26:12;11.70;99.90
26262;DHT22;13988;52.446;13.280;2023-10-08T09:28:44;11.70;99.90
26262;DHT22;13988;52.446;13.280;2023-10-08T09:31:12;11.70;99.90
26262;DHT22;13988;52.446;13.280;2023-10-08T09:33:38;11.90;99.90
26262;DHT22;13988;52.446;13.280;2023-10-08T09:36:05;12.00;99.90
26262;DHT22;13988;52.446;13.280;2023-10-08T09:38:35;12.00;99.90
26262;DHT22;13988;52.446;13.280;2023-10-08T09:41:03;11.90;99.90
26262;DHT22;13988;52.446;13.280;2023-10-08T09:43:31;11.90;99.90
26262;DHT22;13988;52.446;13.280;2023-10-08T09:46:21;12.10;99.90
26262;DHT22;13988;52.446;13.280;2023-10-08T09:48:52;12.10;99.90
26262;DHT22;13988;52.446;13.280;2023-10-08T09:51:21;12.10;99.90
26262;DHT22;13988;52.446;13.280;2023-10-08T09:54:10;12.10;99.90
26262;DHT22;13988;52.446;13.280;2023-10-08T09:56:39;12.10;99.90
26262;DHT22;13988;52.446;13.280;2023-10-08T09:59:07;12.40;99.90
26262;DHT22;13988;52.446;13.280;2023-10-08T10:01:37;12.40;99.90
26262;DHT22;13988;52.446;13.280;2023-10-08T10:04:10;12.40;99.90
26262;DHT22;13988;52.446;13.280;2023-10-08T10:06:37;12.20;99.90
26262;DHT22;13988;52.446;13.280;2023-10-08T10:09:04;12.20;99.90
26262;DHT22;13988;52.446;13.280;2023-10-08T10:11:33;12.30;99.90
26262;DHT22;13988;52.446;13.280;2023-10-08T10:14:01;12.30;99.90
26262;DHT22;13988;52.446;13.280;2023-10-08T10:16:28;12.30;99.90
26262;DHT22;13988;52.446;13.280;2023-10-08T10:18:59;12.30;99.90
26262;DHT22;13988;52.446;13.280;2023-10-08T10:21:28;12.30;99.90
26262;DHT22;13988;52.446;13.280;2023-10-08T10:23:55;12.40;99.90
26262;DHT22;13988;52.446;13.280;2023-10-08T10:26:35;12.40;99.90
26262;DHT22;13988;52.446;13.280;2023-10-08T10:31:53;12.70;99.90
26262;DHT22;13988;52.446;13.280;2023-10-08T10:34:23;12.80;99.90
26262;DHT22;13988;52.446;13.280;2023-10-08T10:36:54;12.80;99.90
26262;DHT22;13988;52.446;13.280;2023-10-08T10:39:57;12.70;99.90
26262;DHT22;13988;52.446;13.280;2023-10-08T10:42:27;12.70;99.90
26262;DHT22;13988;52.446;13.280;2023-10-08T10:44:54;12.90;99.90
26262;DHT22;13988;52.446;13.280;2023-10-08T10:47:22;12.80;99.90
26262;DHT22;13988;52.446;13.280;2023-10-08T10:49:52;12.90;99.90
26262;DHT22;13988;52.446;13.280;2023-10-08T10:52:28;13.10;99.90
26262;DHT22;13988;52.446;13.280;2023-10-08T10:55:04;13.10;99.90
26262;DHT22;13988;52.446;13.280;2023-10-08T10:57:47;13.10;99.90
26262;DHT22;13988;52.446;13.280;2023-10-08T11:00:22;13.10;99.90
26262;DHT22;13988;52.446;13.280;2023-10-08T11:03:01;13.00;99.90
26262;DHT22;13988;52.446;13.280;2023-10-08T11:05:49;12.90;99.90
26262;DHT22;13988;52.446;13.280;2023-10-08T11:08:17;12.80;99.90
26262;DHT22;13988;52.446;13.280;2023-10-08T11:10:48;12.70;99.90
26262;DHT22;13988;52.446;13.280;2023-10-08T11:13:21;12.60;99.90
26262;DHT22;13988;52.446;13.280;2023-10-08T11:15:54;12.80;99.90
26262;DHT22;13988;52.446;13.280;2023-10-08T11:18:22;13.00;99.90
26262;DHT22;13988;52.446;13.280;2023-10-08T11:20:49;13.20;99.90
26262;DHT22;13988;52.446;13.280;2023-10-08T11:26:02;13.50;99.90
26262;DHT22;13988;52.446;13.280;2023-10-08T11:28:33;13.70;99.90
26262;DHT22;13988;52.446;13.280;2023-10-08T11:31:05;13.80;99.90
26262;DHT22;13988;52.446;13.280;2023-10-08T11:33:41;13.90;99.90
26262;DHT22;13988;52.446;13.280;2023-10-08T11:36:08;13.80;99.90
26262;DHT22;13988;52.446;13.280;2023-10-08T11:38:56;13.70;99.90
26262;DHT22;13988;52.446;13.280;2023-10-08T11:41:27;13.80;99.90
26262;DHT22;13988;52.446;13.280;2023-10-08T11:43:54;13.90;99.90
26262;DHT22;13988;52.446;13.280;2023-10-08T11:46:28;13.90;99.90
26262;DHT22;13988;52.446;13.280;2023-10-08T11:49:07;14.70;99.90
26262;DHT22;13988;52.446;13.280;2023-10-08T11:51:36;15.50;99.90
26262;DHT22;13988;52.446;13.280;2023-10-08T11:54:02;15.80;99.90
26262;DHT22;13988;52.446;13.280;2023-10-08T11:56:32;15.70;99.90
26262;DHT22;13988;52.446;13.280;2023-10-08T11:59:01;16.30;95.40
26262;DHT22;13988;52.446;13.280;2023-10-08T12:01:27;16.60;99.90
26262;DHT22;13988;52.446;13.280;2023-10-08T12:03:53;16.80;99.90
26262;DHT22;13988;52.446;13.280;2023-10-08T12:06:25;17.00;99.90
26262;DHT22;13988;52.446;13.280;2023-10-08T12:08:55;17.90;88.50
26262;DHT22;13988;52.446;13.280;2023-10-08T12:11:24;17.40;80.40
26262;DHT22;13988;52.446;13.280;2023-10-08T12:13:57;17.30;88.90
26262;DHT22;13988;52.446;13.280;2023-10-08T12:16:25;17.00;86.20
26262;DHT22;13988;52.446;13.280;2023-10-08T12:18:55;17.50;84.10
26262;DHT22;13988;52.446;13.280;2023-10-08T12:21:41;16.70;88.10
26262;DHT22;13988;52.446;13.280;2023-10-08T12:24:07;17.10;96.00
26262;DHT22;13988;52.446;13.280;2023-10-08T12:26:36;17.70;93.40
26262;DHT22;13988;52.446;13.280;2023-10-08T12:29:01;17.40;92.70
26262;DHT22;13988;52.446;13.280;2023-10-08T12:31:27;16.30;89.10
26262;DHT22;13988;52.446;13.280;2023-10-08T12:33:55;16.30;79.40
26262;DHT22;13988;52.446;13.280;2023-10-08T12:36:26;15.50;96.20
26262;DHT22;13988;52.446;13.280;2023-10-08T12:38:53;15.80;97.50
26262;DHT22;13988;52.446;13.280;2023-10-08T12:41:25;15.30;96.70
26262;DHT22;13988;52.446;13.280;2023-10-08T12:43:53;15.80;99.60
26262;DHT22;13988;52.446;13.280;2023-10-08T12:46:20;16.80;99.50
26262;DHT22;13988;52.446;13.280;2023-10-08T12:48:50;17.60;93.60
26262;DHT22;13988;52.446;13.280;2023-10-08T12:51:24;18.30;92.60
26262;DHT22;13988;52.446;13.280;2023-10-08T12:53:53;18.70;77.50
26262;DHT22;13988;52.446;13.280;2023-10-08T12:56:30;18.00;82.40
26262;DHT22;13988;52.446;13.280;2023-10-08T12:59:05;17.30;91.00
26262;DHT22;13988;52.446;13.280;2023-10-08T13:01:34;18.40;91.60
26262;DHT22;13988;52.446;13.280;2023-10-08T13:04:02;18.10;81.30
26262;DHT22;13988;52.446;13.280;2023-10-08T13:06:33;19.60;84.90
26262;DHT22;13988;52.446;13.280;2023-10-08T13:09:03;19.80;72.40
26262;DHT22;13988;52.446;13.280;2023-10-08T13:11:38;19.50;72.30
26262;DHT22;13988;52.446;13.280;2023-10-08T13:14:04;19.10;76.00
26262;DHT22;13988;52.446;13.280;2023-10-08T13:16:30;18.40;65.20
26262;DHT22;13988;52.446;13.280;2023-10-08T13:19:03;18.30;69.60
26262;DHT22;13988;52.446;13.280;2023-10-08T13:21:29;18.40;67.80
26262;DHT22;13988;52.446;13.280;2023-10-08T13:23:57;18.40;76.10
26262;DHT22;13988;52.446;13.280;2023-10-08T13:26:25;19.30;87.80
26262;DHT22;13988;52.446;13.280;2023-10-08T13:28:56;19.40;76.50
26262;DHT22;13988;52.446;13.280;2023-10-08T13:31:23;20.00;69.60
26262;DHT22;13988;52.446;13.280;2023-10-08T13:33:50;19.30;73.90
26262;DHT22;13988;52.446;13.280;2023-10-08T13:36:18;19.30;67.60
26262;DHT22;13988;52.446;13.280;2023-10-08T13:38:43;19.00;69.40
26262;DHT22;13988;52.446;13.280;2023-10-08T13:41:11;18.30;75.50
26262;DHT22;13988;52.446;13.280;2023-10-08T13:43:50;17.70;80.10
26262;DHT22;13988;52.446;13.280;2023-10-08T13:46:20;16.80;73.40
26262;DHT22;13988;52.446;13.280;2023-10-08T13:48:49;16.30;78.80
26262;DHT22;13988;52.446;13.280;2023-10-08T13:54:04;16.00;83.60
26262;DHT22;13988;52.446;13.280;2023-10-08T13:56:34;15.80;83.40
26262;DHT22;13988;52.446;13.280;2023-10-08T13:59:03;15.50;83.40
26262;DHT22;13988;52.446;13.280;2023-10-08T14:01:33;15.50;86.90
26262;DHT22;13988;52.446;13.280;2023-10-08T14:03:59;15.50;82.90
26262;DHT22;13988;52.446;13.280;2023-10-08T14:06:34;15.50;88.30
26262;DHT22;13988;52.446;13.280;2023-10-08T14:09:01;15.50;86.80
26262;DHT22;13988;52.446;13.280;2023-10-08T14:11:26;15.30;86.50
26262;DHT22;13988;52.446;13.280;2023-10-08T14:13:59;15.10;88.40
26262;DHT22;13988;52.446;13.280;2023-10-08T14:16:28;15.20;90.60
26262;DHT22;13988;52.446;13.280;2023-10-08T14:18:55;15.20;90.80
26262;DHT22;13988;52.446;13.280;2023-10-08T14:21:23;14.90;89.60
26262;DHT22;13988;52.446;13.280;2023-10-08T14:23:52;14.80;90.10
26262;DHT22;13988;52.446;13.280;2023-10-08T14:26:18;15.00;94.80
26262;DHT22;13988;52.446;13.280;2023-10-08T14:28:48;14.90;95.20
26262;DHT22;13988;52.446;13.280;2023-10-08T14:31:20;15.00;97.50
26262;DHT22;13988;52.446;13.280;2023-10-08T14:33:50;15.10;96.90
26262;DHT22;13988;52.446;13.280;2023-10-08T14:36:31;15.10;99.60
26262;DHT22;13988;52.446;13.280;2023-10-08T14:39:15;15.10;98.70
26262;DHT22;13988;52.446;13.280;2023-10-08T14:42:06;15.00;99.50
26262;DHT22;13988;52.446;13.280;2023-10-08T14:44:51;14.80;99.90
26262;DHT22;13988;52.446;13.280;2023-10-08T14:47:16;14.70;99.90
26262;DHT22;13988;52.446;13.280;2023-10-08T14:49:42;14.70;99.90
26262;DHT22;13988;52.446;13.280;2023-10-08T14:52:13;14.80;99.90
26262;DHT22;13988;52.446;13.280;2023-10-08T14:54:40;14.70;99.90
26262;DHT22;13988;52.446;13.280;2023-10-08T14:57:07;14.60;99.90
26262;DHT22;13988;52.446;13.280;2023-10-08T14:59:33;14.50;99.90
26262;DHT22;13988;52.446;13.280;2023-10-08T15:01:58;14.50;99.90
26262;DHT22;13988;52.446;13.280;2023-10-08T15:04:25;14.50;99.90
26262;DHT22;13988;52.446;13.280;2023-10-08T15:06:57;14.60;99.90
26262;DHT22;13988;52.446;13.280;2023-10-08T15:09:23;14.60;99.90
26262;DHT22;13988;52.446;13.280;2023-10-08T15:11:52;14.40;99.90
26262;DHT22;13988;52.446;13.280;2023-10-08T15:14:19;14.40;99.90
26262;DHT22;13988;52.446;13.280;2023-10-08T15:16:45;14.20;99.90
26262;DHT22;13988;52.446;13.280;2023-10-08T15:19:21;14.20;99.90
26262;DHT22;13988;52.446;13.280;2023-10-08T15:21:48;14.20;99.90
26262;DHT22;13988;52.446;13.280;2023-10-08T15:24:21;14.20;99.90
26262;DHT22;13988;52.446;13.280;2023-10-08T15:26:54;14.20;99.90
26262;DHT22;13988;52.446;13.280;2023-10-08T15:29:21;14.20;99.90
26262;DHT22;13988;52.446;13.280;2023-10-08T15:31:48;14.00;99.90
26262;DHT22;13988;52.446;13.280;2023-10-08T15:34:15;14.10;99.90
26262;DHT22;13988;52.446;13.280;2023-10-08T15:36:41;13.90;99.90
26262;DHT22;13988;52.446;13.280;2023-10-08T15:39:07;13.90;99.90
26262;DHT22;13988;52.446;13.280;2023-10-08T15:41:38;13.80;99.90
26262;DHT22;13988;52.446;13.280;2023-10-08T15:44:04;13.80;99.90
26262;DHT22;13988;52.446;13.280;2023-10-08T15:46:34;13.70;99.90
26262;DHT22;13988;52.446;13.280;2023-10-08T15:49:03;13.70;99.90